sensor_id;sensor_type;location;lat;lon;timestamp;P1;durP1;ratioP1;P2;durP2;ratioP2
4742;SDS011;24293;48.154;7.748;2023-09-08T00:00:20;11.60;;;6.70;;
4742;SDS011;24293;48.154;7.748;2023-09-08T00:02:48;11.00;;;6.53;;
4742;SDS011;24293;48.154;7.748;2023-09-08T00:05:15;12.73;;;7.80;;
4742;SDS011;24293;48.154;7.748;2023-09-08T00:07:45;10.57;;;7.60;;
4742;SDS011;24293;48.154;7.748;2023-09-08T00:10:13;10.90;;;7.63;;
4742;SDS011;24293;48.154;7.748;2023-09-08T00:12:40;11.10;;;7.87;;
4742;SDS011;24293;48.154;7.748;2023-09-08T00:15:08;13.17;;;8.10;;
4742;SDS011;24293;48.154;7.748;2023-09-08T00:17:35;12.87;;;8.27;;
4742;SDS011;24293;48.154;7.748;2023-09-08T00:20:05;13.90;;;8.40;;
4742;SDS011;24293;48.154;7.748;2023-09-08T00:22:33;13.23;;;7.37;;
4742;SDS011;24293;48.154;7.748;2023-09-08T00:25:03;16.20;;;7.97;;
4742;SDS011;24293;48.154;7.748;2023-09-08T00:27:30;13.90;;;8.50;;
4742;SDS011;24293;48.154;7.748;2023-09-08T00:29:57;16.07;;;8.70;;
4742;SDS011;24293;48.154;7.748;2023-09-08T00:32:23;13.33;;;8.53;;
4742;SDS011;24293;48.154;7.748;2023-09-08T00:34:50;12.47;;;7.43;;
4742;SDS011;24293;48.154;7.748;2023-09-08T00:37:17;14.43;;;7.33;;
4742;SDS011;24293;48.154;7.748;2023-09-08T00:39:44;13.40;;;7.20;;
4742;SDS011;24293;48.154;7.748;2023-09-08T00:42:10;12.80;;;7.80;;
4742;SDS011;24293;48.154;7.748;2023-09-08T00:44:37;13.07;;;7.90;;
4742;SDS011;24293;48.154;7.748;2023-09-08T00:47:03;13.43;;;8.67;;
4742;SDS011;24293;48.154;7.748;2023-09-08T00:49:32;10.30;;;8.00;;
4742;SDS011;24293;48.154;7.748;2023-09-08T00:52:01;9.90;;;7.40;;
4742;SDS011;24293;48.154;7.748;2023-09-08T00:54:30;17.43;;;7.90;;
4742;SDS011;24293;48.154;7.748;2023-09-08T00:56:57;12.63;;;7.50;;
4742;SDS011;24293;48.154;7.748;2023-09-08T00:59:25;16.33;;;7.33;;
4742;SDS011;24293;48.154;7.748;2023-09-08T01:01:52;13.07;;;6.37;;
4742;SDS011;24293;48.154;7.748;2023-09-08T01:04:20;13.83;;;8.03;;
4742;SDS011;24293;48.154;7.748;2023-09-08T01:06:46;12.77;;;7.00;;
4742;SDS011;24293;48.154;7.748;2023-09-08T01:09:13;11.57;;;7.30;;
4742;SDS011;24293;48.154;7.748;2023-09-08T01:11:41;12.70;;;8.10;;
4742;SDS011;24293;48.154;7.748;2023-09-08T01:14:07;12.40;;;8.00;;
4742;SDS011;24293;48.154;7.748;2023-09-08T01:16:34;12.20;;;8.40;;
4742;SDS011;24293;48.154;7.748;2023-09-08T01:19:02;14.37;;;8.37;;
4742;SDS011;24293;48.154;7.748;2023-09-08T01:21:47;11.70;;;8.27;;
4742;SDS011;24293;48.154;7.748;2023-09-08T01:24:31;15.83;;;9.00;;
4742;SDS011;24293;48.154;7.748;2023-09-08T01:27:06;11.47;;;7.70;;
4742;SDS011;24293;48.154;7.748;2023-09-08T01:29:34;9.80;;;7.10;;
4742;SDS011;24293;48.154;7.748;2023-09-08T01:32:00;12.80;;;8.07;;
4742;SDS011;24293;48.154;7.748;2023-09-08T01:34:29;13.27;;;7.77;;
4742;SDS011;24293;48.154;7.748;2023-09-08T01:36:56;18.50;;;8.43;;
4742;SDS011;24293;48.154;7.748;2023-09-08T01:39:25;14.70;;;8.80;;
4742;SDS011;24293;48.154;7.748;2023-09-08T01:41:51;14.70;;;8.50;;
4742;SDS011;24293;48.154;7.748;2023-09-08T01:44:19;20.63;;;9.37;;
4742;SDS011;24293;48.154;7.748;2023-09-08T01:46:45;15.20;;;9.93;;
4742;SDS011;24293;48.154;7.748;2023-09-08T01:49:12;13.03;;;9.03;;
4742;SDS011;24293;48.154;7.748;2023-09-08T01:51:39;11.40;;;9.10;;
4742;SDS011;24293;48.154;7.748;2023-09-08T01:54:06;11.57;;;7.40;;
4742;SDS011;24293;48.154;7.748;2023-09-08T01:56:32;15.50;;;7.50;;
4742;SDS011;24293;48.154;7.748;2023-09-08T01:58:59;16.23;;;7.60;;
4742;SDS011;24293;48.154;7.748;2023-09-08T02:01:27;12.17;;;7.47;;
4742;SDS011;24293;48.154;7.748;2023-09-08T02:03:53;18.23;;;7.80;;
4742;SDS011;24293;48.154;7.748;2023-09-08T02:06:20;11.33;;;7.23;;
4742;SDS011;24293;48.154;7.748;2023-09-08T02:08:46;11.20;;;7.63;;
4742;SDS011;24293;48.154;7.748;2023-09-08T02:11:14;12.60;;;7.50;;
4742;SDS011;24293;48.154;7.748;2023-09-08T02:13:41;11.93;;;7.37;;
4742;SDS011;24293;48.154;7.748;2023-09-08T02:16:13;14.53;;;7.73;;
4742;SDS011;24293;48.154;7.748;2023-09-08T02:18:43;13.57;;;7.53;;
4742;SDS011;24293;48.154;7.748;2023-09-08T02:21:10;14.13;;;7.37;;
4742;SDS011;24293;48.154;7.748;2023-09-08T02:23:36;11.30;;;7.77;;
4742;SDS011;24293;48.154;7.748;2023-09-08T02:26:03;15.60;;;6.93;;
4742;SDS011;24293;48.154;7.748;2023-09-08T02:28:29;12.17;;;7.10;;
4742;SDS011;24293;48.154;7.748;2023-09-08T02:30:57;11.97;;;6.80;;
4742;SDS011;24293;48.154;7.748;2023-09-08T02:33:24;9.67;;;7.23;;
4742;SDS011;24293;48.154;7.748;2023-09-08T02:35:59;11.30;;;7.30;;
4742;SDS011;24293;48.154;7.748;2023-09-08T02:38:27;11.63;;;6.80;;
4742;SDS011;24293;48.154;7.748;2023-09-08T02:40:54;11.53;;;7.13;;
4742;SDS011;24293;48.154;7.748;2023-09-08T02:43:21;8.80;;;6.40;;
4742;SDS011;24293;48.154;7.748;2023-09-08T02:45:47;10.83;;;7.10;;
4742;SDS011;24293;48.154;7.748;2023-09-08T02:48:14;15.47;;;7.60;;
4742;SDS011;24293;48.154;7.748;2023-09-08T02:50:41;11.20;;;8.10;;
4742;SDS011;24293;48.154;7.748;2023-09-08T02:53:12;13.80;;;7.50;;
4742;SDS011;24293;48.154;7.748;2023-09-08T02:55:39;17.70;;;8.10;;
4742;SDS011;24293;48.154;7.748;2023-09-08T02:58:06;9.93;;;7.37;;
4742;SDS011;24293;48.154;7.748;2023-09-08T03:00:32;9.27;;;7.07;;
4742;SDS011;24293;48.154;7.748;2023-09-08T03:02:59;10.17;;;7.73;;
4742;SDS011;24293;48.154;7.748;2023-09-08T03:05:25;11.60;;;7.00;;
4742;SDS011;24293;48.154;7.748;2023-09-08T03:07:52;9.90;;;7.17;;
4742;SDS011;24293;48.154;7.748;2023-09-08T03:10:20;10.70;;;7.30;;
4742;SDS011;24293;48.154;7.748;2023-09-08T03:12:46;10.67;;;7.10;;
4742;SDS011;24293;48.154;7.748;2023-09-08T03:15:12;16.50;;;7.30;;
4742;SDS011;24293;48.154;7.748;2023-09-08T03:17:38;12.40;;;7.17;;
4742;SDS011;24293;48.154;7.748;2023-09-08T03:20:10;14.30;;;6.57;;
4742;SDS011;24293;48.154;7.748;2023-09-08T03:22:39;11.60;;;6.20;;
4742;SDS011;24293;48.154;7.748;2023-09-08T03:25:06;11.80;;;7.33;;
4742;SDS011;24293;48.154;7.748;2023-09-08T03:27:34;10.63;;;6.77;;
4742;SDS011;24293;48.154;7.748;2023-09-08T03:30:01;12.87;;;8.00;;
4742;SDS011;24293;48.154;7.748;2023-09-08T03:32:29;11.13;;;7.40;;
4742;SDS011;24293;48.154;7.748;2023-09-08T03:34:58;9.27;;;6.63;;
4742;SDS011;24293;48.154;7.748;2023-09-08T03:37:25;15.13;;;7.10;;
4742;SDS011;24293;48.154;7.748;2023-09-08T03:39:52;11.73;;;7.40;;
4742;SDS011;24293;48.154;7.748;2023-09-08T03:42:21;10.80;;;6.70;;
4742;SDS011;24293;48.154;7.748;2023-09-08T03:44:49;11.80;;;7.40;;
4742;SDS011;24293;48.154;7.748;2023-09-08T03:47:16;14.97;;;7.30;;
4742;SDS011;24293;48.154;7.748;2023-09-08T03:49:43;13.50;;;8.57;;
4742;SDS011;24293;48.154;7.748;2023-09-08T03:52:10;15.27;;;8.00;;
4742;SDS011;24293;48.154;7.748;2023-09-08T03:54:37;23.60;;;9.63;;
4742;SDS011;24293;48.154;7.748;2023-09-08T03:57:06;16.23;;;10.17;;
4742;SDS011;24293;48.154;7.748;2023-09-08T03:59:34;13.20;;;9.53;;
4742;SDS011;24293;48.154;7.748;2023-09-08T04:04:45;21.63;;;9.93;;
4742;SDS011;24293;48.154;7.748;2023-09-08T04:07:12;13.23;;;9.27;;
4742;SDS011;24293;48.154;7.748;2023-09-08T04:09:38;15.57;;;9.17;;
4742;SDS011;24293;48.154;7.748;2023-09-08T04:12:05;18.73;;;8.73;;
4742;SDS011;24293;48.154;7.748;2023-09-08T04:14:34;13.47;;;8.50;;
4742;SDS011;24293;48.154;7.748;2023-09-08T04:17:01;15.80;;;8.60;;
4742;SDS011;24293;48.154;7.748;2023-09-08T04:19:33;12.83;;;8.53;;
4742;SDS011;24293;48.154;7.748;2023-09-08T04:22:01;16.17;;;9.10;;
4742;SDS011;24293;48.154;7.748;2023-09-08T04:24:31;16.70;;;8.80;;
4742;SDS011;24293;48.154;7.748;2023-09-08T04:27:00;14.70;;;9.60;;
4742;SDS011;24293;48.154;7.748;2023-09-08T04:29:28;18.80;;;10.10;;
4742;SDS011;24293;48.154;7.748;2023-09-08T04:31:55;14.03;;;9.20;;
4742;SDS011;24293;48.154;7.748;2023-09-08T04:34:21;13.10;;;9.33;;
4742;SDS011;24293;48.154;7.748;2023-09-08T04:36:48;13.23;;;8.50;;
4742;SDS011;24293;48.154;7.748;2023-09-08T04:39:15;15.10;;;9.00;;
4742;SDS011;24293;48.154;7.748;2023-09-08T04:41:42;13.83;;;8.57;;
4742;SDS011;24293;48.154;7.748;2023-09-08T04:44:08;14.07;;;8.53;;
4742;SDS011;24293;48.154;7.748;2023-09-08T04:46:35;15.10;;;8.80;;
4742;SDS011;24293;48.154;7.748;2023-09-08T04:49:02;12.27;;;8.20;;
4742;SDS011;24293;48.154;7.748;2023-09-08T04:51:28;12.67;;;7.80;;
4742;SDS011;24293;48.154;7.748;2023-09-08T04:53:55;14.03;;;8.47;;
4742;SDS011;24293;48.154;7.748;2023-09-08T04:56:23;12.87;;;8.70;;
4742;SDS011;24293;48.154;7.748;2023-09-08T04:58:49;11.27;;;8.93;;
4742;SDS011;24293;48.154;7.748;2023-09-08T05:01:16;14.00;;;8.33;;
4742;SDS011;24293;48.154;7.748;2023-09-08T05:03:43;28.07;;;13.67;;
4742;SDS011;24293;48.154;7.748;2023-09-08T05:06:09;12.27;;;8.50;;
4742;SDS011;24293;48.154;7.748;2023-09-08T05:08:36;16.47;;;10.63;;
4742;SDS011;24293;48.154;7.748;2023-09-08T05:11:05;15.40;;;9.00;;
4742;SDS011;24293;48.154;7.748;2023-09-08T05:13:32;13.93;;;7.97;;
4742;SDS011;24293;48.154;7.748;2023-09-08T05:15:59;16.40;;;8.70;;
4742;SDS011;24293;48.154;7.748;2023-09-08T05:18:35;12.43;;;8.57;;
4742;SDS011;24293;48.154;7.748;2023-09-08T05:21:02;20.10;;;11.57;;
4742;SDS011;24293;48.154;7.748;2023-09-08T05:23:28;21.20;;;12.47;;
4742;SDS011;24293;48.154;7.748;2023-09-08T05:25:56;17.10;;;10.30;;
4742;SDS011;24293;48.154;7.748;2023-09-08T05:28:22;20.70;;;12.27;;
4742;SDS011;24293;48.154;7.748;2023-09-08T05:30:51;19.27;;;12.33;;
4742;SDS011;24293;48.154;7.748;2023-09-08T05:33:18;19.73;;;10.87;;
4742;SDS011;24293;48.154;7.748;2023-09-08T05:35:44;21.70;;;11.70;;
4742;SDS011;24293;48.154;7.748;2023-09-08T05:38:12;13.80;;;9.47;;
4742;SDS011;24293;48.154;7.748;2023-09-08T05:40:39;18.50;;;10.43;;
4742;SDS011;24293;48.154;7.748;2023-09-08T05:43:06;15.10;;;9.27;;
4742;SDS011;24293;48.154;7.748;2023-09-08T05:45:32;14.70;;;9.87;;
4742;SDS011;24293;48.154;7.748;2023-09-08T05:48:02;14.07;;;10.53;;
4742;SDS011;24293;48.154;7.748;2023-09-08T05:50:29;16.63;;;9.00;;
4742;SDS011;24293;48.154;7.748;2023-09-08T05:52:55;17.70;;;9.80;;
4742;SDS011;24293;48.154;7.748;2023-09-08T05:55:23;13.03;;;9.07;;
4742;SDS011;24293;48.154;7.748;2023-09-08T05:57:49;16.63;;;10.37;;
4742;SDS011;24293;48.154;7.748;2023-09-08T06:00:19;16.13;;;9.63;;
4742;SDS011;24293;48.154;7.748;2023-09-08T06:02:47;13.50;;;9.30;;
4742;SDS011;24293;48.154;7.748;2023-09-08T06:05:15;14.70;;;9.67;;
4742;SDS011;24293;48.154;7.748;2023-09-08T06:07:42;14.03;;;9.20;;
4742;SDS011;24293;48.154;7.748;2023-09-08T06:10:09;15.20;;;10.10;;
4742;SDS011;24293;48.154;7.748;2023-09-08T06:12:35;14.50;;;9.83;;
4742;SDS011;24293;48.154;7.748;2023-09-08T06:15:02;19.67;;;10.87;;
4742;SDS011;24293;48.154;7.748;2023-09-08T06:17:29;15.97;;;9.60;;
4742;SDS011;24293;48.154;7.748;2023-09-08T06:19:55;15.00;;;10.80;;
4742;SDS011;24293;48.154;7.748;2023-09-08T06:22:26;21.70;;;12.93;;
4742;SDS011;24293;48.154;7.748;2023-09-08T06:24:55;19.97;;;12.17;;
4742;SDS011;24293;48.154;7.748;2023-09-08T06:27:22;20.63;;;12.70;;
4742;SDS011;24293;48.154;7.748;2023-09-08T06:29:48;23.73;;;12.03;;
4742;SDS011;24293;48.154;7.748;2023-09-08T06:32:15;23.10;;;12.27;;
4742;SDS011;24293;48.154;7.748;2023-09-08T06:34:41;19.80;;;11.97;;
4742;SDS011;24293;48.154;7.748;2023-09-08T06:37:08;22.43;;;11.13;;
4742;SDS011;24293;48.154;7.748;2023-09-08T06:39:35;20.43;;;10.53;;
4742;SDS011;24293;48.154;7.748;2023-09-08T06:42:02;16.73;;;10.70;;
4742;SDS011;24293;48.154;7.748;2023-09-08T06:44:30;27.03;;;11.87;;
4742;SDS011;24293;48.154;7.748;2023-09-08T06:46:56;22.37;;;12.80;;
4742;SDS011;24293;48.154;7.748;2023-09-08T06:49:23;26.23;;;13.60;;
4742;SDS011;24293;48.154;7.748;2023-09-08T06:51:50;23.30;;;12.13;;
4742;SDS011;24293;48.154;7.748;2023-09-08T06:54:16;26.77;;;13.17;;
4742;SDS011;24293;48.154;7.748;2023-09-08T06:56:44;26.13;;;13.00;;
4742;SDS011;24293;48.154;7.748;2023-09-08T06:59:11;25.17;;;12.47;;
4742;SDS011;24293;48.154;7.748;2023-09-08T07:01:37;23.47;;;11.43;;
4742;SDS011;24293;48.154;7.748;2023-09-08T07:04:04;25.27;;;11.80;;
4742;SDS011;24293;48.154;7.748;2023-09-08T07:06:31;26.73;;;12.87;;
4742;SDS011;24293;48.154;7.748;2023-09-08T07:08:57;36.90;;;12.83;;
4742;SDS011;24293;48.154;7.748;2023-09-08T07:11:24;23.90;;;12.30;;
4742;SDS011;24293;48.154;7.748;2023-09-08T07:13:53;23.27;;;12.10;;
4742;SDS011;24293;48.154;7.748;2023-09-08T07:16:19;23.17;;;13.10;;
4742;SDS011;24293;48.154;7.748;2023-09-08T07:18:45;25.77;;;11.83;;
4742;SDS011;24293;48.154;7.748;2023-09-08T07:21:12;22.00;;;11.90;;
4742;SDS011;24293;48.154;7.748;2023-09-08T07:23:38;35.43;;;11.87;;
4742;SDS011;24293;48.154;7.748;2023-09-08T07:26:08;26.33;;;11.53;;
4742;SDS011;24293;48.154;7.748;2023-09-08T07:28:38;18.60;;;11.87;;
4742;SDS011;24293;48.154;7.748;2023-09-08T07:31:06;37.60;;;19.40;;
4742;SDS011;24293;48.154;7.748;2023-09-08T07:33:36;23.13;;;13.17;;
4742;SDS011;24293;48.154;7.748;2023-09-08T07:36:03;22.70;;;11.40;;
4742;SDS011;24293;48.154;7.748;2023-09-08T07:38:30;24.47;;;11.87;;
4742;SDS011;24293;48.154;7.748;2023-09-08T07:40:57;18.73;;;11.03;;
4742;SDS011;24293;48.154;7.748;2023-09-08T07:43:25;22.83;;;11.67;;
4742;SDS011;24293;48.154;7.748;2023-09-08T07:45:54;19.83;;;9.73;;
4742;SDS011;24293;48.154;7.748;2023-09-08T07:48:24;28.87;;;13.57;;
4742;SDS011;24293;48.154;7.748;2023-09-08T07:50:53;27.20;;;12.00;;
4742;SDS011;24293;48.154;7.748;2023-09-08T07:53:19;25.70;;;10.10;;
4742;SDS011;24293;48.154;7.748;2023-09-08T07:55:46;29.60;;;10.93;;
4742;SDS011;24293;48.154;7.748;2023-09-08T07:58:21;21.30;;;11.50;;
4742;SDS011;24293;48.154;7.748;2023-09-08T08:00:48;30.93;;;16.23;;
4742;SDS011;24293;48.154;7.748;2023-09-08T08:03:17;21.77;;;9.93;;
4742;SDS011;24293;48.154;7.748;2023-09-08T08:05:44;18.23;;;10.43;;
4742;SDS011;24293;48.154;7.748;2023-09-08T08:08:12;25.13;;;9.90;;
4742;SDS011;24293;48.154;7.748;2023-09-08T08:10:40;24.03;;;11.23;;
4742;SDS011;24293;48.154;7.748;2023-09-08T08:13:06;20.50;;;10.07;;
4742;SDS011;24293;48.154;7.748;2023-09-08T08:15:36;16.53;;;9.80;;
4742;SDS011;24293;48.154;7.748;2023-09-08T08:18:03;18.00;;;9.13;;
4742;SDS011;24293;48.154;7.748;2023-09-08T08:20:30;17.10;;;9.80;;
4742;SDS011;24293;48.154;7.748;2023-09-08T08:23:01;13.70;;;9.20;;
4742;SDS011;24293;48.154;7.748;2023-09-08T08:25:27;18.70;;;9.40;;
4742;SDS011;24293;48.154;7.748;2023-09-08T08:27:54;22.90;;;9.33;;
4742;SDS011;24293;48.154;7.748;2023-09-08T08:30:21;15.73;;;9.00;;
4742;SDS011;24293;48.154;7.748;2023-09-08T08:32:49;11.63;;;8.40;;
4742;SDS011;24293;48.154;7.748;2023-09-08T08:35:18;13.20;;;9.70;;
4742;SDS011;24293;48.154;7.748;2023-09-08T08:37:45;11.57;;;8.70;;
4742;SDS011;24293;48.154;7.748;2023-09-08T08:40:13;16.23;;;8.60;;
4742;SDS011;24293;48.154;7.748;2023-09-08T08:42:40;17.33;;;9.10;;
4742;SDS011;24293;48.154;7.748;2023-09-08T08:45:07;15.37;;;8.47;;
4742;SDS011;24293;48.154;7.748;2023-09-08T08:47:33;15.00;;;9.57;;
4742;SDS011;24293;48.154;7.748;2023-09-08T08:50:00;14.00;;;8.67;;
4742;SDS011;24293;48.154;7.748;2023-09-08T08:52:28;14.27;;;8.90;;
4742;SDS011;24293;48.154;7.748;2023-09-08T08:54:54;13.33;;;9.10;;
4742;SDS011;24293;48.154;7.748;2023-09-08T08:57:22;20.33;;;9.60;;
4742;SDS011;24293;48.154;7.748;2023-09-08T08:59:49;14.07;;;8.67;;
4742;SDS011;24293;48.154;7.748;2023-09-08T09:02:18;13.23;;;8.13;;
4742;SDS011;24293;48.154;7.748;2023-09-08T09:04:45;14.90;;;8.83;;
4742;SDS011;24293;48.154;7.748;2023-09-08T09:07:12;13.43;;;8.20;;
4742;SDS011;24293;48.154;7.748;2023-09-08T09:09:40;18.60;;;8.77;;
4742;SDS011;24293;48.154;7.748;2023-09-08T09:12:07;14.00;;;8.43;;
4742;SDS011;24293;48.154;7.748;2023-09-08T09:14:35;14.10;;;8.10;;
4742;SDS011;24293;48.154;7.748;2023-09-08T09:17:01;18.90;;;8.33;;
4742;SDS011;24293;48.154;7.748;2023-09-08T09:19:30;18.63;;;9.20;;
4742;SDS011;24293;48.154;7.748;2023-09-08T09:21:57;13.80;;;8.37;;
4742;SDS011;24293;48.154;7.748;2023-09-08T09:24:31;9.57;;;7.43;;
4742;SDS011;24293;48.154;7.748;2023-09-08T09:26:58;15.53;;;8.67;;
4742;SDS011;24293;48.154;7.748;2023-09-08T09:29:25;10.10;;;7.83;;
4742;SDS011;24293;48.154;7.748;2023-09-08T09:31:53;9.30;;;7.53;;
4742;SDS011;24293;48.154;7.748;2023-09-08T09:34:23;16.80;;;8.53;;
4742;SDS011;24293;48.154;7.748;2023-09-08T09:36:50;14.40;;;9.53;;
4742;SDS011;24293;48.154;7.748;2023-09-08T09:39:19;12.77;;;7.90;;
4742;SDS011;24293;48.154;7.748;2023-09-08T09:41:46;11.27;;;8.53;;
4742;SDS011;24293;48.154;7.748;2023-09-08T09:44:12;10.57;;;7.60;;
4742;SDS011;24293;48.154;7.748;2023-09-08T09:46:42;12.80;;;8.23;;
4742;SDS011;24293;48.154;7.748;2023-09-08T09:49:11;14.10;;;7.40;;
4742;SDS011;24293;48.154;7.748;2023-09-08T09:51:39;13.33;;;7.03;;
4742;SDS011;24293;48.154;7.748;2023-09-08T09:54:07;13.17;;;7.60;;
4742;SDS011;24293;48.154;7.748;2023-09-08T09:56:34;16.73;;;8.60;;
4742;SDS011;24293;48.154;7.748;2023-09-08T09:59:02;14.73;;;7.93;;
4742;SDS011;24293;48.154;7.748;2023-09-08T10:01:29;16.33;;;7.60;;
4742;SDS011;24293;48.154;7.748;2023-09-08T10:03:57;12.13;;;8.13;;
4742;SDS011;24293;48.154;7.748;2023-09-08T10:06:25;10.13;;;7.40;;
4742;SDS011;24293;48.154;7.748;2023-09-08T10:08:52;18.60;;;7.77;;
4742;SDS011;24293;48.154;7.748;2023-09-08T10:11:21;11.40;;;8.07;;
4742;SDS011;24293;48.154;7.748;2023-09-08T10:13:49;11.90;;;8.33;;
4742;SDS011;24293;48.154;7.748;2023-09-08T10:16:17;14.67;;;8.07;;
4742;SDS011;24293;48.154;7.748;2023-09-08T10:18:46;10.47;;;7.07;;
4742;SDS011;24293;48.154;7.748;2023-09-08T10:21:13;11.83;;;7.00;;
4742;SDS011;24293;48.154;7.748;2023-09-08T10:23:43;15.13;;;7.30;;
4742;SDS011;24293;48.154;7.748;2023-09-08T10:26:11;9.43;;;6.47;;
4742;SDS011;24293;48.154;7.748;2023-09-08T10:28:39;11.73;;;7.20;;
4742;SDS011;24293;48.154;7.748;2023-09-08T10:31:06;9.47;;;7.00;;
4742;SDS011;24293;48.154;7.748;2023-09-08T10:33:33;13.90;;;7.43;;
4742;SDS011;24293;48.154;7.748;2023-09-08T10:36:00;10.90;;;6.90;;
4742;SDS011;24293;48.154;7.748;2023-09-08T10:38:31;13.10;;;7.17;;
4742;SDS011;24293;48.154;7.748;2023-09-08T10:43:41;12.37;;;8.70;;
4742;SDS011;24293;48.154;7.748;2023-09-08T10:46:08;12.77;;;6.10;;
4742;SDS011;24293;48.154;7.748;2023-09-08T10:48:39;11.13;;;6.00;;
4742;SDS011;24293;48.154;7.748;2023-09-08T10:51:12;13.03;;;7.60;;
4742;SDS011;24293;48.154;7.748;2023-09-08T10:53:39;10.33;;;6.43;;
4742;SDS011;24293;48.154;7.748;2023-09-08T10:56:05;13.10;;;7.33;;
4742;SDS011;24293;48.154;7.748;2023-09-08T10:58:34;11.17;;;7.90;;
4742;SDS011;24293;48.154;7.748;2023-09-08T11:01:03;7.97;;;6.00;;
4742;SDS011;24293;48.154;7.748;2023-09-08T11:03:42;9.80;;;6.83;;
4742;SDS011;24293;48.154;7.748;2023-09-08T11:06:09;9.70;;;6.47;;
4742;SDS011;24293;48.154;7.748;2023-09-08T11:08:36;11.77;;;6.10;;
4742;SDS011;24293;48.154;7.748;2023-09-08T11:11:03;12.27;;;6.23;;
4742;SDS011;24293;48.154;7.748;2023-09-08T11:13:30;15.13;;;6.20;;
4742;SDS011;24293;48.154;7.748;2023-09-08T11:15:56;12.60;;;6.87;;
4742;SDS011;24293;48.154;7.748;2023-09-08T11:18:26;13.10;;;6.20;;
4742;SDS011;24293;48.154;7.748;2023-09-08T11:20:53;10.90;;;5.70;;
4742;SDS011;24293;48.154;7.748;2023-09-08T11:23:20;11.20;;;6.27;;
4742;SDS011;24293;48.154;7.748;2023-09-08T11:25:49;13.17;;;5.57;;
4742;SDS011;24293;48.154;7.748;2023-09-08T11:28:16;8.53;;;5.57;;
4742;SDS011;24293;48.154;7.748;2023-09-08T11:30:43;11.00;;;5.80;;
4742;SDS011;24293;48.154;7.748;2023-09-08T11:33:13;9.10;;;5.10;;
4742;SDS011;24293;48.154;7.748;2023-09-08T11:35:43;9.97;;;5.17;;
4742;SDS011;24293;48.154;7.748;2023-09-08T11:38:11;8.17;;;5.07;;
4742;SDS011;24293;48.154;7.748;2023-09-08T11:40:37;8.10;;;5.10;;
4742;SDS011;24293;48.154;7.748;2023-09-08T11:43:04;7.60;;;5.00;;
4742;SDS011;24293;48.154;7.748;2023-09-08T11:45:33;9.77;;;5.10;;
4742;SDS011;24293;48.154;7.748;2023-09-08T11:48:00;7.73;;;4.70;;
4742;SDS011;24293;48.154;7.748;2023-09-08T11:50:27;8.57;;;5.20;;
4742;SDS011;24293;48.154;7.748;2023-09-08T11:52:55;9.37;;;5.20;;
4742;SDS011;24293;48.154;7.748;2023-09-08T11:55:22;11.50;;;5.00;;
4742;SDS011;24293;48.154;7.748;2023-09-08T11:57:49;8.20;;;5.97;;
4742;SDS011;24293;48.154;7.748;2023-09-08T12:00:20;8.30;;;5.17;;
4742;SDS011;24293;48.154;7.748;2023-09-08T12:02:48;9.60;;;5.23;;
4742;SDS011;24293;48.154;7.748;2023-09-08T12:05:20;10.47;;;5.30;;
4742;SDS011;24293;48.154;7.748;2023-09-08T12:07:47;10.30;;;5.80;;
4742;SDS011;24293;48.154;7.748;2023-09-08T12:10:16;15.90;;;5.13;;
4742;SDS011;24293;48.154;7.748;2023-09-08T12:12:44;7.77;;;5.37;;
4742;SDS011;24293;48.154;7.748;2023-09-08T12:15:10;9.70;;;5.07;;
4742;SDS011;24293;48.154;7.748;2023-09-08T12:17:47;8.63;;;5.37;;
4742;SDS011;24293;48.154;7.748;2023-09-08T12:20:15;7.13;;;5.20;;
4742;SDS011;24293;48.154;7.748;2023-09-08T12:22:47;5.83;;;4.80;;
4742;SDS011;24293;48.154;7.748;2023-09-08T12:25:14;6.87;;;4.83;;
4742;SDS011;24293;48.154;7.748;2023-09-08T12:27:45;8.53;;;5.23;;
4742;SDS011;24293;48.154;7.748;2023-09-08T12:30:16;12.07;;;5.30;;
4742;SDS011;24293;48.154;7.748;2023-09-08T12:32:44;7.13;;;5.40;;
4742;SDS011;24293;48.154;7.748;2023-09-08T12:35:12;11.97;;;5.70;;
4742;SDS011;24293;48.154;7.748;2023-09-08T12:37:39;7.90;;;4.80;;
4742;SDS011;24293;48.154;7.748;2023-09-08T12:40:06;7.63;;;5.60;;
4742;SDS011;24293;48.154;7.748;2023-09-08T12:42:32;8.30;;;4.73;;
4742;SDS011;24293;48.154;7.748;2023-09-08T12:45:03;6.33;;;4.63;;
4742;SDS011;24293;48.154;7.748;2023-09-08T12:47:29;8.27;;;4.67;;
4742;SDS011;24293;48.154;7.748;2023-09-08T12:49:56;11.57;;;5.73;;
4742;SDS011;24293;48.154;7.748;2023-09-08T12:52:22;8.50;;;4.60;;
4742;SDS011;24293;48.154;7.748;2023-09-08T12:54:54;9.77;;;4.93;;
4742;SDS011;24293;48.154;7.748;2023-09-08T12:57:21;10.63;;;5.13;;
4742;SDS011;24293;48.154;7.748;2023-09-08T12:59:47;9.10;;;6.20;;
4742;SDS011;24293;48.154;7.748;2023-09-08T13:02:17;8.30;;;5.20;;
4742;SDS011;24293;48.154;7.748;2023-09-08T13:04:44;11.37;;;5.03;;
4742;SDS011;24293;48.154;7.748;2023-09-08T13:07:15;8.93;;;5.00;;
4742;SDS011;24293;48.154;7.748;2023-09-08T13:09:42;10.93;;;5.43;;
4742;SDS011;24293;48.154;7.748;2023-09-08T13:12:11;8.80;;;4.53;;
4742;SDS011;24293;48.154;7.748;2023-09-08T13:14:38;11.57;;;4.83;;
4742;SDS011;24293;48.154;7.748;2023-09-08T13:17:05;10.50;;;4.90;;
4742;SDS011;24293;48.154;7.748;2023-09-08T13:19:32;10.90;;;4.47;;
4742;SDS011;24293;48.154;7.748;2023-09-08T13:21:59;7.90;;;4.97;;
4742;SDS011;24293;48.154;7.748;2023-09-08T13:24:26;6.80;;;4.70;;
4742;SDS011;24293;48.154;7.748;2023-09-08T13:26:54;7.33;;;4.83;;
4742;SDS011;24293;48.154;7.748;2023-09-08T13:29:22;8.83;;;4.60;;
4742;SDS011;24293;48.154;7.748;2023-09-08T13:31:49;13.53;;;5.40;;
4742;SDS011;24293;48.154;7.748;2023-09-08T13:34:15;14.10;;;4.23;;
4742;SDS011;24293;48.154;7.748;2023-09-08T13:36:43;8.20;;;4.80;;
4742;SDS011;24293;48.154;7.748;2023-09-08T13:39:09;6.70;;;4.60;;
4742;SDS011;24293;48.154;7.748;2023-09-08T13:41:44;8.77;;;5.13;;
4742;SDS011;24293;48.154;7.748;2023-09-08T13:44:11;9.77;;;4.97;;
4742;SDS011;24293;48.154;7.748;2023-09-08T13:46:37;11.03;;;5.13;;
4742;SDS011;24293;48.154;7.748;2023-09-08T13:49:03;7.50;;;5.10;;
4742;SDS011;24293;48.154;7.748;2023-09-08T13:51:32;14.07;;;5.33;;
4742;SDS011;24293;48.154;7.748;2023-09-08T13:54:00;7.93;;;5.00;;
4742;SDS011;24293;48.154;7.748;2023-09-08T13:56:26;13.13;;;5.20;;
4742;SDS011;24293;48.154;7.748;2023-09-08T13:58:54;7.27;;;4.33;;
4742;SDS011;24293;48.154;7.748;2023-09-08T14:01:20;6.10;;;4.23;;
4742;SDS011;24293;48.154;7.748;2023-09-08T14:03:49;7.50;;;4.83;;
4742;SDS011;24293;48.154;7.748;2023-09-08T14:06:17;7.00;;;4.87;;
4742;SDS011;24293;48.154;7.748;2023-09-08T14:08:46;7.30;;;5.10;;
4742;SDS011;24293;48.154;7.748;2023-09-08T14:11:17;6.33;;;4.50;;
4742;SDS011;24293;48.154;7.748;2023-09-08T14:13:43;8.70;;;4.70;;
4742;SDS011;24293;48.154;7.748;2023-09-08T14:16:10;8.50;;;4.80;;
4742;SDS011;24293;48.154;7.748;2023-09-08T14:18:37;12.50;;;4.93;;
4742;SDS011;24293;48.154;7.748;2023-09-08T14:21:04;6.17;;;4.30;;
4742;SDS011;24293;48.154;7.748;2023-09-08T14:23:30;9.10;;;5.03;;
4742;SDS011;24293;48.154;7.748;2023-09-08T14:25:59;9.93;;;5.17;;
4742;SDS011;24293;48.154;7.748;2023-09-08T14:28:27;7.97;;;5.13;;
4742;SDS011;24293;48.154;7.748;2023-09-08T14:30:53;9.27;;;4.80;;
4742;SDS011;24293;48.154;7.748;2023-09-08T14:33:19;7.83;;;4.70;;
4742;SDS011;24293;48.154;7.748;2023-09-08T14:35:46;11.07;;;4.50;;
4742;SDS011;24293;48.154;7.748;2023-09-08T14:38:16;5.90;;;4.60;;
4742;SDS011;24293;48.154;7.748;2023-09-08T14:40:42;9.10;;;5.10;;
4742;SDS011;24293;48.154;7.748;2023-09-08T14:43:09;12.30;;;4.73;;
4742;SDS011;24293;48.154;7.748;2023-09-08T14:45:37;8.10;;;4.30;;
4742;SDS011;24293;48.154;7.748;2023-09-08T14:48:03;7.30;;;4.50;;
4742;SDS011;24293;48.154;7.748;2023-09-08T14:50:30;10.70;;;4.70;;
4742;SDS011;24293;48.154;7.748;2023-09-08T14:53:04;8.30;;;4.10;;
4742;SDS011;24293;48.154;7.748;2023-09-08T14:55:31;9.30;;;4.30;;